createdAt,value
2018-03-26T00:03:10.726Z,46.70
2018-03-26T00:05:37.769Z,47.80
2018-03-26T00:08:05.052Z,47.10
2018-03-26T00:10:33.271Z,46.90
2018-03-26T00:13:00.052Z,47.30
2018-03-26T00:15:27.091Z,48.50
2018-03-26T00:17:54.157Z,47.90
2018-03-26T00:20:21.192Z,48.20
2018-03-26T00:22:48.226Z,48.60
2018-03-26T00:25:15.293Z,48.90
2018-03-26T00:27:43.196Z,48.70
2018-03-26T00:30:10.262Z,48.60
2018-03-26T00:32:37.359Z,49.40
2018-03-26T00:35:05.216Z,50.30
2018-03-26T00:37:32.277Z,51.20
2018-03-26T00:39:59.336Z,49.30
2018-03-26T00:42:26.379Z,49.00
2018-03-26T00:44:53.416Z,49.80
2018-03-26T00:47:20.504Z,49.90
2018-03-26T00:49:47.564Z,50.70
2018-03-26T00:52:14.606Z,52.00
2018-03-26T00:54:42.363Z,51.90
2018-03-26T00:57:09.405Z,52.50
2018-03-26T01:02:03.617Z,51.20
2018-03-26T01:04:30.654Z,52.90
2018-03-26T01:06:57.696Z,52.50
2018-03-26T01:09:24.773Z,51.70
2018-03-26T01:11:51.809Z,51.90
2018-03-26T01:14:18.846Z,52.20
2018-03-26T01:21:51.601Z,52.60
2018-03-26T01:24:18.910Z,51.50
2018-03-26T01:26:45.960Z,51.90
2018-03-26T01:29:13.029Z,52.60
2018-03-26T01:31:40.058Z,52.00
2018-03-26T01:34:07.122Z,52.00
2018-03-26T01:36:34.658Z,52.60
2018-03-26T01:39:01.690Z,52.60
2018-03-26T01:43:56.284Z,53.50
2018-03-26T01:46:23.313Z,52.20
2018-03-26T01:48:50.336Z,52.50
2018-03-26T01:51:17.436Z,52.60
2018-03-26T01:56:11.620Z,52.60
2018-03-26T01:58:38.686Z,53.10
2018-03-26T02:01:05.727Z,53.00
2018-03-26T02:05:59.908Z,52.90
2018-03-26T02:08:26.943Z,54.20
2018-03-26T02:10:54.735Z,54.00
2018-03-26T02:13:21.814Z,55.30
2018-03-26T02:15:48.837Z,56.00
2018-03-26T02:18:15.849Z,55.60
2018-03-26T02:20:43.174Z,55.10
2018-03-26T02:23:10.208Z,54.50
2018-03-26T02:25:37.256Z,55.70
2018-03-26T02:28:04.316Z,55.40
2018-03-26T02:30:31.350Z,56.00
2018-03-26T02:32:58.400Z,56.30
2018-03-26T02:35:25.503Z,55.30
2018-03-26T02:37:52.540Z,55.50
2018-03-26T02:42:58.095Z,55.30
2018-03-26T02:48:05.263Z,55.30
2018-03-26T02:50:33.200Z,54.80
2018-03-26T02:53:03.307Z,54.90
2018-03-26T02:55:30.405Z,54.90
2018-03-26T02:58:00.289Z,54.70
2018-03-26T03:00:27.319Z,54.70
2018-03-26T03:02:54.381Z,55.00
2018-03-26T03:05:21.424Z,56.10
2018-03-26T03:07:48.465Z,56.90
2018-03-26T03:10:15.541Z,58.20
2018-03-26T03:12:42.578Z,57.10
2018-03-26T03:15:09.617Z,57.80
2018-03-26T03:17:36.698Z,57.70
2018-03-26T03:20:03.746Z,59.30
2018-03-26T03:22:30.814Z,60.30
2018-03-26T03:24:57.845Z,60.50
2018-03-26T03:27:24.885Z,59.40
2018-03-26T03:29:51.927Z,59.80
2018-03-26T03:32:19.970Z,59.90
2018-03-26T03:34:47.008Z,61.30
2018-03-26T03:37:14.048Z,62.70
2018-03-26T03:39:41.112Z,61.60
2018-03-26T03:42:11.242Z,62.40
2018-03-26T03:44:39.094Z,61.80
2018-03-26T03:47:06.763Z,62.10
2018-03-26T03:49:33.802Z,62.70
2018-03-26T03:52:00.876Z,63.70
2018-03-26T03:54:27.910Z,63.80
2018-03-26T03:56:55.918Z,62.80
2018-03-26T03:59:22.973Z,62.50
2018-03-26T04:04:28.540Z,63.50
2018-03-26T04:06:55.643Z,64.10
2018-03-26T04:09:22.674Z,63.90
2018-03-26T04:11:49.690Z,64.70
2018-03-26T04:14:16.786Z,65.50
2018-03-26T04:16:44.589Z,63.70
2018-03-26T04:19:11.634Z,64.00
2018-03-26T04:21:38.685Z,64.60
2018-03-26T04:24:05.728Z,64.00
2018-03-26T04:26:32.780Z,64.20
2018-03-26T04:28:59.855Z,65.20
2018-03-26T04:31:26.892Z,64.40
2018-03-26T04:33:53.925Z,65.30
2018-03-26T04:36:20.998Z,64.30
2018-03-26T04:38:49.620Z,64.80
2018-03-26T04:41:16.668Z,65.60
2018-03-26T04:43:43.725Z,65.80
2018-03-26T04:46:10.759Z,65.00
2018-03-26T04:48:37.796Z,65.60
2018-03-26T04:51:06.732Z,64.50
2018-03-26T04:53:33.742Z,64.60
2018-03-26T04:56:00.796Z,66.50
2018-03-26T04:58:27.879Z,66.90
2018-03-26T05:00:54.924Z,66.20
2018-03-26T05:03:22.784Z,67.90
2018-03-26T05:05:49.881Z,68.20
2018-03-26T05:08:16.929Z,69.50
2018-03-26T05:13:11.114Z,69.00
2018-03-26T05:15:38.144Z,69.20
2018-03-26T05:18:05.181Z,69.00
2018-03-26T05:20:32.698Z,69.90
2018-03-26T05:22:59.727Z,71.40
2018-03-26T05:25:26.759Z,71.70
2018-03-26T05:27:53.836Z,72.40
2018-03-26T05:33:01.403Z,69.50
2018-03-26T05:35:28.434Z,68.80
2018-03-26T05:37:55.482Z,68.00
2018-03-26T05:40:22.545Z,67.90
2018-03-26T05:42:50.549Z,67.50
2018-03-26T05:45:17.582Z,66.80
2018-03-26T05:47:44.644Z,66.60
2018-03-26T05:50:11.673Z,67.20
2018-03-26T05:52:39.663Z,67.50
2018-03-26T05:55:06.768Z,67.30
2018-03-26T05:57:34.270Z,66.90
2018-03-26T06:00:01.345Z,66.60
2018-03-26T06:02:28.407Z,67.70
2018-03-26T06:04:55.438Z,69.30
2018-03-26T06:07:23.347Z,68.90
2018-03-26T06:09:50.443Z,68.80
2018-03-26T06:12:17.467Z,68.80
2018-03-26T06:14:51.100Z,69.00
2018-03-26T06:17:18.371Z,69.10
2018-03-26T06:19:45.410Z,68.40
2018-03-26T06:22:12.495Z,69.00
2018-03-26T06:24:40.376Z,69.80
2018-03-26T06:27:07.410Z,69.10
2018-03-26T06:29:34.504Z,69.70
2018-03-26T06:32:01.566Z,69.80
2018-03-26T06:34:30.066Z,70.80
2018-03-26T06:36:57.157Z,69.30
2018-03-26T06:39:24.214Z,70.10
2018-03-26T06:41:52.161Z,70.20
2018-03-26T06:44:19.252Z,70.00
2018-03-26T06:46:46.289Z,72.10
2018-03-26T06:49:13.346Z,72.70
2018-03-26T06:51:43.371Z,74.10
2018-03-26T06:54:10.449Z,72.90
2018-03-26T06:59:20.523Z,72.30
2018-03-26T07:01:47.848Z,71.90
2018-03-26T07:09:09.718Z,69.40
2018-03-26T07:14:15.740Z,68.40
2018-03-26T07:16:43.624Z,68.20
2018-03-26T07:19:10.663Z,66.90
2018-03-26T07:21:37.740Z,68.00
2018-03-26T07:24:04.771Z,67.10
2018-03-26T07:28:59.016Z,66.10
2018-03-26T07:31:26.542Z,64.50
2018-03-26T07:33:53.578Z,64.00
2018-03-26T07:36:20.652Z,64.30
2018-03-26T07:38:48.560Z,63.30
2018-03-26T07:41:15.617Z,63.00
2018-03-26T07:43:42.704Z,62.80
2018-03-26T07:46:09.749Z,62.90
2018-03-26T07:48:36.800Z,61.90
2018-03-26T07:51:05.719Z,62.10
2018-03-26T07:56:11.942Z,61.40
2018-03-26T07:58:38.992Z,61.80
2018-03-26T08:03:35.740Z,61.30
2018-03-26T08:06:07.797Z,60.80
2018-03-26T08:08:34.855Z,59.50
2018-03-26T08:11:02.775Z,60.30
2018-03-26T08:13:31.060Z,59.80
2018-03-26T08:15:58.186Z,59.10
2018-03-26T08:18:25.323Z,59.40
2018-03-26T08:20:53.181Z,59.10
2018-03-26T08:23:20.230Z,59.80
2018-03-26T08:25:47.327Z,58.80
2018-03-26T08:28:14.361Z,58.50
2018-03-26T08:30:41.417Z,59.40
2018-03-26T08:38:35.770Z,56.60
2018-03-26T08:43:30.014Z,56.10
2018-03-26T08:45:57.082Z,55.10
2018-03-26T08:48:24.221Z,54.80
2018-03-26T08:50:51.230Z,54.50
2018-03-26T08:53:18.317Z,54.30
2018-03-26T08:58:24.498Z,53.20
2018-03-26T09:00:51.624Z,53.90
2018-03-26T09:03:24.938Z,51.80
2018-03-26T09:05:52.014Z,52.40
2018-03-26T09:08:19.066Z,52.70
2018-03-26T09:13:13.318Z,52.40
2018-03-26T09:15:40.365Z,51.10
2018-03-26T09:18:08.586Z,51.30
2018-03-26T09:20:35.654Z,51.50
2018-03-26T09:23:05.931Z,51.00
2018-03-26T09:28:00.233Z,50.80
2018-03-26T09:32:56.319Z,50.00
2018-03-26T09:35:23.393Z,50.20
2018-03-26T09:37:50.384Z,49.40
2018-03-26T09:40:17.601Z,49.60
2018-03-26T09:42:44.576Z,49.50
2018-03-26T09:45:11.620Z,50.00
2018-03-26T09:47:38.699Z,50.10
2018-03-26T09:50:05.748Z,53.90
2018-03-26T09:52:32.770Z,55.20
2018-03-26T09:54:59.841Z,55.90
2018-03-26T09:57:26.864Z,56.40
2018-03-26T09:59:53.889Z,57.20
2018-03-26T10:02:20.962Z,57.00
2018-03-26T10:04:47.994Z,56.50
2018-03-26T10:07:15.065Z,56.40
2018-03-26T10:09:42.116Z,54.70
2018-03-26T10:12:09.141Z,54.80
2018-03-26T10:14:36.168Z,56.20
2018-03-26T10:17:03.249Z,55.80
2018-03-26T10:19:30.285Z,56.50
2018-03-26T10:24:35.846Z,54.60
2018-03-26T10:27:02.859Z,55.30
2018-03-26T10:31:57.073Z,55.40
2018-03-26T10:34:25.101Z,56.10
2018-03-26T10:36:52.141Z,55.70
2018-03-26T10:39:19.249Z,54.70
2018-03-26T10:41:47.637Z,56.20
2018-03-26T10:44:13.350Z,56.20
2018-03-26T10:46:40.419Z,56.70
2018-03-26T10:49:07.489Z,55.20
2018-03-26T10:54:02.135Z,53.40
2018-03-26T10:56:29.196Z,53.90
2018-03-26T10:58:59.440Z,54.70
2018-03-26T11:01:26.521Z,53.70
2018-03-26T11:03:53.609Z,53.50
2018-03-26T11:06:20.666Z,52.20
2018-03-26T11:08:48.020Z,51.40
2018-03-26T11:11:15.926Z,54.70
2018-03-26T11:13:46.803Z,56.20
2018-03-26T11:18:49.943Z,53.90
2018-03-26T11:21:19.100Z,54.20
2018-03-26T11:37:38.196Z,54.40
2018-03-26T11:40:06.798Z,54.90
2018-03-26T11:42:34.517Z,54.80
2018-03-26T11:45:02.225Z,54.40
2018-03-26T11:47:29.977Z,54.00
2018-03-26T11:49:58.815Z,55.10
2018-03-26T11:52:26.391Z,54.90
2018-03-26T11:54:55.015Z,53.70
2018-03-26T11:57:23.736Z,54.30
2018-03-26T11:59:51.394Z,53.20
2018-03-26T12:02:19.091Z,53.00
2018-03-26T12:04:46.770Z,53.50
2018-03-26T12:07:15.433Z,54.20
2018-03-26T12:09:43.166Z,53.90
2018-03-26T12:12:11.613Z,53.50
2018-03-26T12:14:42.116Z,53.20
2018-03-26T12:17:11.414Z,51.70
2018-03-26T12:19:50.525Z,51.70
2018-03-26T12:22:18.013Z,51.90
2018-03-26T12:27:32.205Z,51.30
2018-03-26T12:32:44.401Z,50.50
2018-03-26T12:35:23.649Z,51.20
2018-03-26T12:37:51.205Z,52.40
2018-03-26T12:40:30.429Z,51.60
2018-03-26T12:42:58.829Z,51.70
2018-03-26T12:48:04.900Z,52.00
2018-03-26T12:50:44.784Z,51.70
2018-03-26T12:53:12.221Z,53.10
2018-03-26T12:55:40.488Z,51.30
2018-03-26T12:58:20.283Z,51.50
2018-03-26T13:00:59.966Z,53.00
2018-03-26T13:03:29.007Z,53.30
2018-03-26T13:05:57.905Z,54.40
2018-03-26T13:08:26.797Z,53.60
2018-03-26T13:10:54.710Z,55.70
2018-03-26T13:13:22.764Z,57.00
2018-03-26T13:15:50.465Z,54.30
2018-03-26T13:18:18.307Z,54.60
2018-03-26T13:20:46.444Z,55.90
2018-03-26T13:23:13.992Z,52.50
2018-03-26T13:25:42.527Z,52.50
2018-03-26T13:28:12.116Z,52.10
2018-03-26T13:30:39.905Z,51.70
2018-03-26T13:33:08.569Z,51.30
2018-03-26T13:35:36.312Z,50.80
2018-03-26T13:38:04.747Z,50.60
2018-03-26T13:40:32.806Z,49.50
2018-03-26T13:43:00.564Z,51.10
2018-03-26T13:45:28.938Z,50.00
2018-03-26T13:47:56.715Z,51.30
2018-03-26T13:50:24.350Z,51.50
2018-03-26T13:52:53.182Z,52.20
2018-03-26T13:57:59.666Z,52.70
2018-03-26T14:00:27.144Z,51.00
2018-03-26T14:02:54.630Z,52.10
2018-03-26T14:05:22.216Z,52.30
2018-03-26T14:07:49.835Z,51.90
2018-03-26T14:10:28.914Z,51.10
2018-03-26T14:13:08.062Z,51.00
2018-03-26T14:15:47.114Z,51.90
2018-03-26T14:18:14.501Z,53.70
2018-03-26T14:20:42.088Z,53.00
2018-03-26T14:23:09.559Z,52.20
2018-03-26T14:25:38.167Z,53.20
2018-03-26T14:28:05.692Z,55.10
2018-03-26T14:30:34.459Z,55.30
2018-03-26T14:33:02.067Z,55.40
2018-03-26T14:38:11.118Z,54.90
2018-03-26T14:40:38.449Z,54.00
2018-03-26T14:43:08.906Z,53.40
2018-03-26T14:45:36.529Z,53.20
2018-03-26T14:48:05.062Z,52.10
2018-03-26T14:50:32.554Z,53.00
2018-03-26T14:53:00.151Z,53.70
2018-03-26T14:55:28.732Z,52.90
2018-03-26T14:57:56.738Z,53.80
2018-03-26T15:00:23.920Z,53.50
2018-03-26T15:02:52.598Z,54.50
2018-03-26T15:05:20.332Z,53.30
2018-03-26T15:07:47.742Z,54.20
2018-03-26T15:12:44.790Z,53.70
2018-03-26T15:15:12.254Z,53.00
2018-03-26T15:17:41.033Z,53.40
2018-03-26T15:20:09.463Z,53.00
2018-03-26T15:22:38.127Z,52.50
2018-03-26T15:27:33.949Z,51.60
2018-03-26T15:30:07.126Z,52.10
2018-03-26T15:32:35.635Z,52.10
2018-03-26T15:35:03.918Z,51.60
2018-03-26T15:37:32.204Z,51.60
2018-03-26T15:42:28.329Z,50.30
2018-03-26T15:44:56.677Z,51.00
2018-03-26T15:47:24.335Z,51.30
2018-03-26T15:49:52.727Z,52.20
2018-03-26T15:52:20.393Z,52.00
2018-03-26T15:54:49.351Z,51.90
2018-03-26T15:59:54.732Z,51.90
2018-03-26T16:02:22.260Z,51.80
2018-03-26T16:04:49.970Z,51.30
2018-03-26T16:07:17.815Z,52.00
2018-03-26T16:09:45.593Z,51.40
2018-03-26T16:12:12.925Z,52.10
2018-03-26T16:14:46.512Z,52.50
2018-03-26T16:17:13.976Z,52.00
2018-03-26T16:19:43.923Z,51.80
2018-03-26T16:22:13.137Z,51.80
2018-03-26T16:24:44.264Z,51.40
2018-03-26T16:27:12.506Z,51.20
2018-03-26T16:29:40.278Z,50.80
2018-03-26T16:32:07.409Z,51.90
2018-03-26T16:37:10.972Z,51.60
2018-03-26T16:39:39.159Z,51.40
2018-03-26T16:44:56.693Z,51.40
2018-03-26T16:49:52.692Z,54.80
2018-03-26T16:52:20.420Z,55.90
2018-03-26T16:54:48.965Z,57.50
2018-03-26T16:57:16.704Z,58.00
2018-03-26T16:59:45.079Z,58.40
2018-03-26T17:04:46.191Z,56.00
2018-03-26T17:07:18.702Z,53.30
2018-03-26T17:09:46.885Z,54.00
2018-03-26T17:12:16.415Z,55.60
2018-03-26T17:14:48.584Z,55.00
2018-03-26T17:17:21.254Z,55.80
2018-03-26T17:19:49.086Z,52.30
2018-03-26T17:22:22.362Z,54.50
2018-03-26T17:24:50.747Z,54.10
2018-03-26T17:27:18.444Z,53.60
2018-03-26T17:29:48.506Z,56.70
2018-03-26T17:37:32.882Z,59.40
2018-03-26T17:40:01.685Z,60.30
2018-03-26T17:42:30.640Z,60.30
2018-03-26T17:44:59.059Z,57.70
2018-03-26T17:47:27.028Z,59.10
2018-03-26T17:49:54.036Z,62.20
2018-03-26T17:52:21.156Z,62.70
2018-03-26T17:54:48.407Z,61.50
2018-03-26T17:57:21.741Z,61.10
2018-03-26T17:59:48.888Z,62.50
2018-03-26T18:02:16.294Z,64.00
2018-03-26T18:04:43.281Z,65.00
2018-03-26T18:07:11.157Z,65.10
2018-03-26T18:09:37.870Z,61.60
2018-03-26T18:12:04.911Z,60.90
2018-03-26T18:14:32.042Z,60.90
2018-03-26T18:16:59.100Z,64.30
2018-03-26T18:19:26.496Z,65.90
2018-03-26T18:21:53.923Z,68.20
2018-03-26T18:24:21.005Z,68.30
2018-03-26T18:26:48.135Z,68.10
2018-03-26T18:29:15.226Z,68.60
2018-03-26T18:31:42.295Z,70.30
2018-03-26T18:34:09.407Z,71.20
2018-03-26T18:36:36.460Z,70.60
2018-03-26T18:41:43.001Z,71.20
2018-03-26T18:44:10.967Z,72.20
2018-03-26T18:46:37.993Z,74.00
2018-03-26T18:49:05.102Z,78.50
2018-03-26T18:51:33.102Z,77.40
2018-03-26T18:54:00.282Z,77.10
2018-03-26T18:56:28.396Z,76.90
2018-03-26T18:58:55.643Z,77.50
2018-03-26T19:03:53.377Z,78.80
2018-03-26T19:06:20.530Z,78.80
2018-03-26T19:08:47.580Z,79.90
2018-03-26T19:11:14.682Z,79.80
2018-03-26T19:13:41.727Z,80.00
2018-03-26T19:16:08.852Z,82.40
2018-03-26T19:18:36.015Z,83.10
2018-03-26T19:21:04.562Z,82.90
2018-03-26T19:23:31.652Z,83.80
2018-03-26T19:25:58.716Z,86.40
2018-03-26T19:28:25.774Z,86.30
2018-03-26T19:30:52.841Z,86.20
2018-03-26T19:33:19.971Z,86.40
2018-03-26T19:35:47.055Z,86.40
2018-03-26T19:38:14.124Z,86.90
2018-03-26T19:40:41.258Z,87.90
2018-03-26T19:43:08.332Z,89.40
2018-03-26T19:45:35.358Z,89.90
2018-03-26T19:48:02.442Z,91.50
2018-03-26T19:50:29.488Z,92.50
2018-03-26T19:52:56.549Z,91.80
2018-03-26T19:55:23.608Z,92.50
2018-03-26T19:57:50.657Z,92.40
2018-03-26T20:00:17.739Z,92.90
2018-03-26T20:02:44.886Z,97.40
2018-03-26T20:07:51.415Z,97.10
2018-03-26T20:10:18.436Z,95.90
2018-03-26T20:12:46.536Z,96.30
2018-03-26T20:15:13.625Z,95.80
2018-03-26T20:17:44.592Z,93.50
2018-03-26T20:20:11.650Z,95.60
2018-03-26T20:22:44.364Z,95.90
2018-03-26T20:33:56.690Z,92.60
2018-03-26T20:36:23.734Z,94.90
2018-03-26T20:38:50.967Z,94.60
2018-03-26T20:41:18.019Z,94.30
2018-03-26T20:43:51.539Z,92.80
2018-03-26T20:46:25.573Z,93.60
2018-03-26T20:48:56.744Z,94.90
2018-03-26T20:51:24.205Z,96.00
2018-03-26T20:53:52.519Z,95.20
2018-03-26T20:56:19.806Z,94.90
2018-03-26T20:58:46.876Z,94.90
2018-03-26T21:01:13.994Z,94.40
2018-03-26T21:03:41.847Z,97.00
2018-03-26T21:06:08.991Z,98.30
2018-03-26T21:08:36.061Z,97.10
2018-03-26T21:11:03.082Z,95.30
2018-03-26T21:13:30.173Z,95.50
2018-03-26T21:15:57.203Z,92.50
2018-03-26T21:18:24.249Z,91.60
2018-03-26T21:26:18.751Z,93.30
2018-03-26T21:28:51.127Z,95.10
2018-03-26T21:31:18.192Z,95.40
2018-03-26T21:41:31.938Z,95.80
2018-03-26T21:43:58.960Z,94.90
2018-03-26T21:46:25.987Z,96.00
2018-03-26T21:48:53.710Z,93.90
2018-03-26T21:51:21.669Z,93.70
2018-03-26T21:53:48.383Z,94.00
2018-03-26T21:56:15.975Z,95.00
2018-03-26T21:58:43.479Z,95.50
2018-03-26T22:01:12.875Z,95.60
2018-03-26T22:03:38.427Z,94.40
2018-03-26T22:08:32.562Z,94.30
2018-03-26T22:11:00.460Z,93.60
2018-03-26T22:13:28.350Z,94.70
2018-03-26T22:15:55.910Z,95.80
2018-03-26T22:21:04.752Z,94.30
2018-03-26T22:25:58.991Z,94.20
2018-03-26T22:28:26.031Z,93.20
2018-03-26T22:30:53.122Z,92.50
2018-03-26T22:33:20.144Z,94.30
2018-03-26T22:35:47.649Z,95.10
2018-03-26T22:38:14.711Z,95.00
2018-03-26T22:40:41.735Z,94.60
2018-03-26T22:43:08.795Z,93.80
2018-03-26T22:45:36.139Z,94.10
2018-03-26T22:48:04.029Z,93.80
2018-03-26T22:50:31.065Z,94.40
2018-03-26T22:53:00.166Z,94.50
2018-03-26T22:55:27.364Z,94.90
2018-03-26T22:57:55.678Z,95.30
2018-03-26T23:00:22.778Z,96.40
2018-03-26T23:02:49.806Z,95.70
2018-03-26T23:05:16.851Z,95.90
2018-03-26T23:07:44.370Z,95.60
2018-03-26T23:10:11.839Z,95.40
2018-03-26T23:12:40.850Z,95.50
2018-03-26T23:15:07.926Z,96.90
2018-03-26T23:17:34.962Z,97.00
2018-03-26T23:22:47.672Z,97.00
2018-03-26T23:25:14.704Z,97.80
2018-03-26T23:27:41.750Z,97.20
2018-03-26T23:30:08.838Z,97.40
2018-03-26T23:32:35.895Z,97.40
2018-03-26T23:35:07.198Z,97.80
2018-03-26T23:37:34.378Z,97.70
2018-03-26T23:40:04.341Z,96.90
2018-03-26T23:42:32.298Z,97.40
2018-03-26T23:44:59.367Z,97.50
2018-03-26T23:50:05.506Z,97.80
2018-03-26T23:52:33.496Z,97.60
2018-03-26T23:55:00.549Z,97.50
2018-03-26T23:57:28.592Z,97.30
2018-03-26T23:59:55.619Z,98.50
